Time;durP1;ratioP1;P1;durP2;ratioP2;P2;SDS_P1;SDS_P2;PMS_P1;PMS_P2;Temp;Humidity;BMP_temperature;BMP_pressure;BME280_temperature;BME280_humidity;BME280_pressure;Samples;Min_cycle;Max_cycle;Signal;HPM_P1;HPM_P2
2023/11/08 00:01:12;;;;;;;1.58;0.90;;;;;;;8.43;58.87;95207.31;6134169;23;20005;-89
2023/11/08 00:06:03;;;;;;;2.40;1.20;;;;;;;8.28;59.70;95206.34;6187577;23;20028;-89
2023/11/08 00:08:29;;;;;;;5.43;1.10;;;;;;;8.47;58.59;95195.63;6110687;23;20017;-89
2023/11/08 00:10:58;;;;;;;1.30;1.10;;;;;;;8.14;59.15;95187.09;6110854;23;20076;-89
2023/11/08 00:13:23;;;;;;;1.38;0.95;;;;;;;8.32;58.55;95200.69;6134984;23;20057;-89
2023/11/08 00:15:48;;;;;;;1.65;1.00;;;;;;;8.31;59.07;95187.88;6159568;23;20016;-89
2023/11/08 00:18:14;;;;;;;2.55;1.10;;;;;;;8.11;59.14;95196.00;6110667;23;20005;-89
2023/11/08 00:20:40;;;;;;;2.53;1.10;;;;;;;8.43;58.21;95190.97;6140621;23;20112;-89
2023/11/08 00:23:10;;;;;;;2.22;1.40;;;;;;;8.39;58.50;95177.50;6128901;23;20006;-88
2023/11/08 00:25:35;;;;;;;3.13;1.03;;;;;;;8.45;57.93;95197.59;6105318;23;20013;-89
2023/11/08 00:28:04;;;;;;;2.30;0.90;;;;;;;8.17;59.29;95199.72;6129483;23;20259;-89
2023/11/08 00:30:29;;;;;;;2.40;1.30;;;;;;;7.88;59.62;95189.81;6129889;23;19997;-90
2023/11/08 00:32:58;;;;;;;2.17;1.23;;;;;;;7.92;59.33;95186.78;6129851;23;20008;-89
2023/11/08 00:35:24;;;;;;;1.83;1.20;;;;;;;7.85;60.11;95196.16;6130308;23;20025;-89
2023/11/08 00:37:49;;;;;;;1.17;1.00;;;;;;;7.46;61.07;95177.81;6104982;23;20016;-89
2023/11/08 00:40:15;;;;;;;1.40;1.10;;;;;;;7.31;62.01;95198.31;6104648;23;20009;-89
2023/11/08 00:42:40;;;;;;;1.90;1.25;;;;;;;7.17;61.59;95191.97;6105166;23;20018;-90
2023/11/08 00:45:07;;;;;;;1.20;1.10;;;;;;;7.30;61.43;95187.16;6129820;23;20114;-90
2023/11/08 00:47:32;;;;;;;2.22;1.17;;;;;;;7.27;61.53;95197.81;6129761;23;20020;-89
2023/11/08 00:50:00;;;;;;;2.58;1.30;;;;;;;7.34;61.20;95190.25;6129402;23;20009;-88
2023/11/08 00:52:28;;;;;;;3.20;1.30;;;;;;;7.38;60.75;95189.75;6129701;23;20018;-89
2023/11/08 00:54:54;;;;;;;2.95;1.20;;;;;;;7.50;60.29;95186.88;6129034;23;20001;-90
2023/11/08 01:02:32;;;;;;;2.88;1.10;;;;;;;7.53;59.80;95191.75;6202629;23;20017;-89
2023/11/08 01:04:58;;;;;;;1.40;1.00;;;;;;;7.35;60.60;95195.25;6159038;23;20100;-88
2023/11/08 01:07:27;;;;;;;2.17;1.08;;;;;;;7.37;60.21;95188.16;6110325;23;20047;-89
2023/11/08 01:09:52;;;;;;;3.53;1.02;;;;;;;7.58;59.91;95210.19;6110612;23;20008;-88
2023/11/08 01:12:18;;;;;;;1.98;1.00;;;;;;;7.60;59.80;95208.25;6134046;23;20016;-88
2023/11/08 01:14:44;;;;;;;2.92;1.08;;;;;;;7.59;59.46;95212.59;6158753;23;20076;-89
2023/11/08 01:17:10;;;;;;;2.20;1.17;;;;;;;7.34;60.31;95198.81;6158847;23;20084;-89
2023/11/08 01:19:36;;;;;;;1.63;1.00;;;;;;;6.85;61.26;95208.97;6158960;23;20013;-88
2023/11/08 01:22:05;;;;;;;2.10;1.00;;;;;;;7.23;60.47;95192.16;6133949;23;20092;-89
2023/11/08 01:24:34;;;;;;;2.05;0.80;;;;;;;7.61;59.26;95215.03;6134097;23;20084;-89
2023/11/08 01:27:01;;;;;;;2.75;0.98;;;;;;;7.51;59.83;95193.69;6158925;23;20000;-89
2023/11/08 01:29:27;;;;;;;1.85;1.00;;;;;;;7.51;59.68;95198.84;6110203;23;20017;-89
2023/11/08 01:34:21;;;;;;;2.72;1.10;;;;;;;7.33;59.97;95192.03;6133243;23;20044;-88
2023/11/08 01:36:48;;;;;;;1.35;0.80;;;;;;;7.25;59.98;95207.50;6183978;23;20005;-89
2023/11/08 01:39:13;;;;;;;2.83;1.00;;;;;;;7.10;60.52;95198.72;6134534;23;20009;-90
2023/11/08 01:41:48;;;;;;;2.13;1.05;;;;;;;6.99;60.97;95197.25;6183332;23;20084;-90
2023/11/08 01:44:18;;;;;;;3.08;0.90;;;;;;;7.05;60.83;95200.00;6157893;23;20005;-90
2023/11/08 01:54:26;;;;;;;0.90;0.80;;;;;;;7.34;60.06;95185.06;6186346;23;20025;-88
2023/11/08 01:56:54;;;;;;;1.08;0.88;;;;;;;7.30;59.22;95197.50;6105124;23;20048;-89
2023/11/08 01:59:24;;;;;;;2.17;0.98;;;;;;;7.37;59.19;95182.97;6104921;23;20036;-88
2023/11/08 02:01:50;;;;;;;1.42;0.90;;;;;;;7.48;59.32;95199.16;6128365;23;20009;-89
2023/11/08 02:04:17;;;;;;;3.65;0.90;;;;;;;7.39;59.36;95201.75;6104972;23;20078;-89
2023/11/08 02:06:43;;;;;;;1.95;0.88;;;;;;;7.33;59.58;95198.97;6129085;23;20005;-88
2023/11/08 02:09:09;;;;;;;1.55;1.10;;;;;;;7.33;59.94;95194.63;6104912;23;20014;-89
2023/11/08 02:11:34;;;;;;;3.38;1.10;;;;;;;7.38;59.46;95194.13;6128862;23;20010;-89
2023/11/08 02:14:01;;;;;;;4.07;1.15;;;;;;;7.30;59.72;95181.97;6104374;23;20002;-90
2023/11/08 02:24:21;;;;;;;2.72;0.90;;;;;;;7.20;59.40;95189.06;6148113;23;20056;-90
2023/11/08 02:26:47;;;;;;;3.90;1.10;;;;;;;7.13;59.46;95190.66;6128695;23;20013;-89
2023/11/08 02:29:17;;;;;;;2.45;1.00;;;;;;;7.00;60.26;95193.69;6104777;23;20009;-89
2023/11/08 02:31:43;;;;;;;2.30;1.17;;;;;;;7.01;60.02;95187.56;6105586;23;20069;-90
2023/11/08 02:34:09;;;;;;;1.73;1.20;;;;;;;6.91;60.64;95195.44;6104282;23;20014;-89
2023/11/08 02:36:37;;;;;;;2.25;1.00;;;;;;;7.22;59.17;95194.91;6081166;23;20009;-90
2023/11/08 02:39:03;;;;;;;1.75;1.08;;;;;;;7.31;59.16;95199.13;6105466;23;20024;-89
2023/11/08 02:41:31;;;;;;;1.52;0.90;;;;;;;7.37;58.76;95187.34;6154410;23;20013;-88
2023/11/08 02:43:59;;;;;;;2.63;1.30;;;;;;;6.96;60.00;95185.44;6104453;23;20011;-90
2023/11/08 02:46:26;;;;;;;2.47;0.98;;;;;;;7.16;59.16;95180.81;6128756;23;20005;-89
2023/11/08 02:48:56;;;;;;;0.80;0.70;;;;;;;7.03;59.69;95189.00;6104757;23;20010;-88
2023/11/08 02:51:23;;;;;;;1.03;0.83;;;;;;;7.08;59.34;95191.13;6105694;23;20009;-90
2023/11/08 02:53:52;;;;;;;1.80;0.90;;;;;;;6.94;60.31;95191.72;6104969;23;20252;-89
2023/11/08 02:56:18;;;;;;;2.05;0.75;;;;;;;6.97;59.79;95186.25;6107205;23;20009;-89
2023/11/08 02:58:43;;;;;;;1.85;0.80;;;;;;;6.94;59.83;95177.00;6106783;23;20016;-89
2023/11/08 03:03:44;;;;;;;3.05;0.90;;;;;;;6.86;59.49;95177.00;6156353;23;20029;-89
2023/11/08 03:06:09;;;;;;;0.93;0.82;;;;;;;6.80;59.71;95172.44;6106731;23;20019;-88
2023/11/08 03:08:36;;;;;;;1.10;0.85;;;;;;;6.88;59.82;95180.22;6106805;23;20059;-89
2023/11/08 03:11:01;;;;;;;1.63;0.90;;;;;;;6.93;59.77;95183.16;6106443;23;20132;-89
2023/11/08 03:13:26;;;;;;;1.73;0.90;;;;;;;6.75;60.45;95165.16;6106422;23;20013;-89
2023/11/08 03:26:03;;;;;;;1.75;0.85;;;;;;;6.73;60.42;95158.53;6156206;23;20029;-89
2023/11/08 03:28:28;;;;;;;1.58;0.77;;;;;;;6.93;60.04;95170.25;6107059;23;20013;-89
2023/11/08 03:30:54;;;;;;;1.95;0.90;;;;;;;7.03;60.41;95183.84;6131234;23;20008;-90
2023/11/08 03:33:20;;;;;;;1.38;0.73;;;;;;;7.11;59.38;95164.16;6106552;23;20053;-89
2023/11/08 03:35:47;;;;;;;1.73;0.70;;;;;;;6.80;60.23;95183.59;6106606;23;20037;-89
2023/11/08 03:38:13;;;;;;;1.83;0.70;;;;;;;6.91;60.14;95182.53;6130239;23;20009;-88
2023/11/08 03:40:38;;;;;;;1.00;0.88;;;;;;;6.87;59.71;95176.00;6128469;23;20117;-90
2023/11/08 03:43:04;;;;;;;0.80;0.70;;;;;;;7.12;59.24;95183.88;6129624;23;20074;-89
2023/11/08 03:45:29;;;;;;;1.98;0.80;;;;;;;7.18;59.08;95178.09;6130987;23;20005;-89
2023/11/08 03:47:55;;;;;;;0.70;0.70;;;;;;;7.18;58.58;95178.88;6130555;23;20033;-90
2023/11/08 03:50:20;;;;;;;0.88;0.80;;;;;;;7.32;57.90;95185.22;6106202;23;20013;-88
2023/11/08 03:52:47;;;;;;;1.80;0.82;;;;;;;7.04;58.59;95185.47;6106330;23;20088;-88
2023/11/08 03:55:13;;;;;;;1.10;1.00;;;;;;;7.03;59.63;95201.94;6106593;23;20017;-89
2023/11/08 03:57:41;;;;;;;5.25;0.88;;;;;;;6.97;59.07;95196.59;6082760;23;20014;-89
2023/11/08 04:00:07;;;;;;;1.35;0.73;;;;;;;7.05;58.66;95200.00;6130654;23;20006;-89
2023/11/08 04:02:32;;;;;;;0.90;0.70;;;;;;;7.01;59.04;95203.88;6109543;23;20109;-90
2023/11/08 04:05:00;;;;;;;1.23;0.73;;;;;;;7.05;58.90;95201.78;6111082;23;20040;-89
2023/11/08 04:07:27;;;;;;;1.85;0.85;;;;;;;7.00;58.26;95194.50;6107023;23;20010;-89
2023/11/08 04:09:55;;;;;;;2.20;0.82;;;;;;;7.09;58.51;95212.63;6082871;23;20068;-89
2023/11/08 04:12:21;;;;;;;2.13;0.90;;;;;;;6.81;59.71;95210.25;6106153;23;20014;-89
2023/11/08 04:17:21;;;;;;;1.08;0.80;;;;;;;6.69;59.90;95196.78;6125957;23;20022;-89
2023/11/08 04:19:47;;;;;;;1.60;0.80;;;;;;;6.88;59.44;95200.13;6053160;23;20010;-89
2023/11/08 04:22:14;;;;;;;1.77;0.80;;;;;;;6.76;59.46;95191.78;6100877;23;20021;-88
2023/11/08 04:24:39;;;;;;;2.00;0.80;;;;;;;6.65;59.53;95198.88;6140404;23;20026;-88
2023/11/08 04:27:05;;;;;;;1.20;0.80;;;;;;;6.32;60.67;95187.53;6105698;23;20001;-89
2023/11/08 04:42:18;;;;;;;1.65;0.80;;;;;;;6.40;60.49;95205.66;6156038;23;20036;-88
2023/11/08 04:44:47;;;;;;;2.13;0.75;;;;;;;6.30;60.56;95198.97;6081803;23;20127;-89
2023/11/08 04:47:18;;;;;;;1.33;0.90;;;;;;;6.30;60.86;95198.97;6129791;23;20006;-88
2023/11/08 04:49:47;;;;;;;2.47;0.80;;;;;;;6.16;61.79;95192.59;6129915;23;20079;-89
2023/11/08 04:52:13;;;;;;;1.40;0.90;;;;;;;6.44;60.66;95178.56;6106354;23;20009;-89
2023/11/08 04:54:39;;;;;;;3.45;0.80;;;;;;;6.45;60.18;95179.38;6081710;23;20028;-89
2023/11/08 04:57:04;;;;;;;2.50;0.90;;;;;;;6.47;60.62;95172.25;6129976;23;20009;-89
2023/11/08 04:59:30;;;;;;;3.10;0.85;;;;;;;6.43;60.72;95189.84;6105582;23;20073;-89
2023/11/08 05:01:55;;;;;;;1.73;0.80;;;;;;;6.57;60.61;95185.09;6130147;23;20010;-89
2023/11/08 05:04:21;;;;;;;1.15;0.70;;;;;;;6.46;60.55;95178.41;6105730;23;20013;-89
2023/11/08 05:06:48;;;;;;;1.38;0.70;;;;;;;6.57;59.78;95182.53;6106013;23;20009;-89
2023/11/08 05:09:17;;;;;;;1.50;0.70;;;;;;;6.62;59.99;95194.00;6081206;23;20022;-89
2023/11/08 05:11:42;;;;;;;3.03;1.50;;;;;;;6.70;59.41;95182.91;6106238;23;20096;-89
2023/11/08 05:14:08;;;;;;;1.63;1.10;;;;;;;6.99;58.81;95200.66;6105391;23;20036;-90
2023/11/08 05:16:34;;;;;;;2.03;1.00;;;;;;;6.73;59.40;95186.94;6129664;23;20072;-89
2023/11/08 05:21:26;;;;;;;2.47;1.02;;;;;;;7.12;58.10;95200.22;6154882;23;20025;-90
2023/11/08 05:23:52;;;;;;;1.30;0.70;;;;;;;7.19;57.56;95200.38;6129331;23;20065;-89
2023/11/08 05:26:19;;;;;;;1.17;0.65;;;;;;;6.42;60.25;95213.28;6105374;23;20006;-89
2023/11/08 05:28:46;;;;;;;1.27;0.70;;;;;;;6.67;59.48;95210.84;6105787;23;20010;-90
2023/11/08 05:31:12;;;;;;;1.02;0.60;;;;;;;6.77;59.23;95206.34;6079111;23;20020;-89
2023/11/08 05:38:42;;;;;;;1.25;0.70;;;;;;;6.76;59.22;95210.72;6154950;23;20022;-91
2023/11/08 05:41:10;;;;;;;1.15;0.80;;;;;;;6.50;60.02;95218.47;6106141;23;20006;-89
2023/11/08 05:43:35;;;;;;;1.40;0.70;;;;;;;6.65;59.50;95205.81;6106126;23;20080;-90
2023/11/08 05:51:02;;;;;;;1.50;1.02;;;;;;;6.53;59.55;95187.19;6140634;23;20052;-90
2023/11/08 05:53:28;;;;;;;1.35;1.10;;;;;;;6.43;59.89;95199.38;6129482;23;20002;-89
2023/11/08 05:55:53;;;;;;;1.85;1.30;;;;;;;6.55;60.02;95205.94;6104819;23;20087;-89
2023/11/08 05:58:20;;;;;;;3.30;1.58;;;;;;;6.53;58.88;95194.94;6081717;23;20013;-90
2023/11/08 06:00:45;;;;;;;3.42;2.10;;;;;;;6.59;59.25;95209.81;6129202;23;20013;-90
2023/11/08 06:03:13;;;;;;;2.72;1.75;;;;;;;6.44;59.74;95208.75;6129691;23;20076;-89
2023/11/08 06:05:40;;;;;;;4.45;2.70;;;;;;;6.22;60.43;95200.53;6082559;23;20005;-89
2023/11/08 06:08:06;;;;;;;1.90;1.70;;;;;;;6.37;59.79;95202.56;6105561;23;20009;-89
2023/11/08 06:10:34;;;;;;;4.10;1.50;;;;;;;6.49;59.58;95203.94;6105535;23;20036;-90
2023/11/08 06:13:05;;;;;;;4.20;1.55;;;;;;;6.59;59.49;95209.81;6104793;23;20085;-89
2023/11/08 06:15:31;;;;;;;1.95;1.00;;;;;;;6.65;59.54;95218.75;6107108;23;20010;-90
2023/11/08 06:17:56;;;;;;;1.70;0.90;;;;;;;6.41;59.67;95211.63;6112347;23;20015;-89
2023/11/08 06:20:22;;;;;;;0.95;0.70;;;;;;;6.36;59.78;95213.84;6131886;23;20020;-90
2023/11/08 06:22:50;;;;;;;1.85;1.10;;;;;;;6.58;59.03;95212.56;6105502;23;20005;-89
2023/11/08 06:25:15;;;;;;;1.90;0.90;;;;;;;6.46;59.70;95219.75;6105903;23;20017;-89
2023/11/08 06:32:44;;;;;;;3.30;2.08;;;;;;;6.82;58.89;95227.41;6163714;23;20022;-89
2023/11/08 06:35:10;;;;;;;7.20;5.25;;;;;;;6.70;59.55;95226.03;6081913;23;20052;-89
2023/11/08 06:37:39;;;;;;;14.80;10.88;;;;;;;6.79;58.96;95235.44;6082228;23;20009;-90
2023/11/08 06:40:07;;;;;;;3.30;2.05;;;;;;;6.96;57.90;95229.38;6105405;23;20010;-91
2023/11/08 06:45:12;;;;;;;3.13;1.05;;;;;;;6.84;58.53;95239.19;6157915;23;20036;-89
2023/11/08 06:47:38;;;;;;;3.45;2.28;;;;;;;6.88;58.14;95223.38;6128735;23;20024;-89
2023/11/08 06:52:29;;;;;;;2.47;1.60;;;;;;;7.18;57.61;95235.78;6162299;23;20026;-91
2023/11/08 06:54:57;;;;;;;2.03;1.25;;;;;;;7.18;57.44;95230.63;6104748;23;20013;-89
2023/11/08 06:57:22;;;;;;;3.20;0.70;;;;;;;7.01;57.51;95234.91;6081112;23;20013;-90
2023/11/08 06:59:51;;;;;;;1.67;0.70;;;;;;;7.02;57.11;95241.69;6104598;23;20013;-89
2023/11/08 07:02:16;;;;;;;4.65;2.75;;;;;;;6.93;58.07;95244.41;6105278;23;20093;-89
2023/11/08 07:07:17;;;;;;;3.60;1.65;;;;;;;7.02;57.47;95236.50;6154508;23;20043;-89
2023/11/08 07:09:44;;;;;;;6.03;2.50;;;;;;;7.27;57.54;95243.56;6081120;23;20009;-88
2023/11/08 07:12:10;;;;;;;10.43;4.57;;;;;;;7.01;58.13;95234.09;6104876;23;20010;-89
2023/11/08 07:14:36;;;;;;;11.57;5.10;;;;;;;6.96;58.50;95244.91;6103629;23;20015;-88
2023/11/08 07:17:03;;;;;;;9.32;3.85;;;;;;;7.09;58.06;95241.91;6128376;23;20012;-90
2023/11/08 07:19:29;;;;;;;9.60;3.97;;;;;;;7.19;58.28;95249.53;6128059;23;20005;-90
2023/11/08 07:21:57;;;;;;;8.63;3.78;;;;;;;7.84;57.30;95243.72;6126842;23;20020;-90
2023/11/08 07:24:22;;;;;;;9.30;3.72;;;;;;;8.85;55.18;95259.91;6103554;23;20021;-90
2023/11/08 07:37:03;;;;;;;6.35;2.95;;;;;;;14.27;42.57;95253.97;6146908;23;20041;-88
2023/11/08 07:39:28;;;;;;;5.78;2.83;;;;;;;15.31;40.49;95260.38;6126555;23;20082;-87
2023/11/08 07:41:55;;;;;;;5.97;2.90;;;;;;;15.79;38.28;95256.59;6128094;23;20005;-88
2023/11/08 07:44:20;;;;;;;5.80;2.67;;;;;;;15.61;39.08;95271.16;6128403;23;20008;-87
2023/11/08 07:46:46;;;;;;;4.47;2.30;;;;;;;16.29;39.06;95261.97;6103947;23;20026;-89
2023/11/08 07:49:11;;;;;;;3.63;2.03;;;;;;;16.98;36.78;95254.19;6104267;23;20032;-88
2023/11/08 07:51:40;;;;;;;3.53;1.92;;;;;;;16.91;37.35;95256.09;6104543;23;20097;-88
2023/11/08 07:54:05;;;;;;;4.63;1.88;;;;;;;17.49;36.60;95263.56;6104192;23;20005;-88
2023/11/08 07:56:30;;;;;;;5.75;1.80;;;;;;;17.56;35.14;95255.63;6079271;23;20025;-90
2023/11/08 07:58:56;;;;;;;4.55;1.58;;;;;;;17.68;36.17;95260.94;6127828;23;20009;-88
2023/11/08 08:01:23;;;;;;;3.63;1.50;;;;;;;17.87;35.48;95252.03;6127689;23;20001;-88
2023/11/08 08:08:50;;;;;;;2.70;1.65;;;;;;;20.02;32.36;95255.38;6152823;23;20022;-87
2023/11/08 08:11:16;;;;;;;2.10;1.45;;;;;;;19.29;33.89;95254.94;6127249;23;20092;-86
2023/11/08 08:13:41;;;;;;;5.50;1.70;;;;;;;19.00;35.38;95249.56;6126901;23;20032;-87
2023/11/08 08:16:10;;;;;;;5.78;1.67;;;;;;;19.19;34.06;95262.63;6127582;23;20012;-87
2023/11/08 08:18:40;;;;;;;4.40;1.52;;;;;;;18.99;35.65;95261.13;6103157;23;20143;-87
2023/11/08 08:21:06;;;;;;;1.58;1.40;;;;;;;18.50;35.62;95257.84;6097822;23;20013;-87
2023/11/08 08:23:33;;;;;;;2.08;1.20;;;;;;;19.25;34.80;95251.16;6075071;23;20009;-88
2023/11/08 08:26:00;;;;;;;2.78;1.25;;;;;;;19.55;34.05;95261.53;6078515;23;20020;-86
2023/11/08 08:28:25;;;;;;;4.10;1.55;;;;;;;18.59;35.47;95259.13;6103435;23;20024;-88
2023/11/08 08:30:51;;;;;;;8.63;1.40;;;;;;;19.43;33.83;95256.28;6102885;23;20084;-87
2023/11/08 08:33:16;;;;;;;6.03;1.40;;;;;;;19.90;32.99;95266.75;6122556;23;20021;-87
2023/11/08 08:35:44;;;;;;;4.05;1.30;;;;;;;20.24;32.95;95264.22;6098896;23;20055;-88
2023/11/08 08:38:10;;;;;;;3.30;1.50;;;;;;;20.17;34.60;95268.84;6124590;23;20002;-87
2023/11/08 08:40:39;;;;;;;2.85;1.30;;;;;;;19.96;34.65;95272.94;6102082;23;20020;-87
2023/11/08 08:43:05;;;;;;;1.63;1.50;;;;;;;20.33;32.38;95282.31;6101185;23;20014;-87
2023/11/08 08:47:57;;;;;;;1.77;1.30;;;;;;;19.49;35.16;95267.75;6149290;23;20025;-87
2023/11/08 08:50:22;;;;;;;2.45;1.60;;;;;;;19.19;36.10;95267.88;6126120;23;20250;-87
2023/11/08 08:52:48;;;;;;;1.90;1.33;;;;;;;19.44;34.93;95276.38;6071614;23;20024;-88
2023/11/08 08:55:13;;;;;;;3.20;1.35;;;;;;;19.33;34.89;95277.97;6122869;23;20008;-88
2023/11/08 09:05:23;;;;;;;4.50;1.23;;;;;;;20.50;33.10;95269.94;6119260;23;20021;-86
2023/11/08 09:10:15;;;;;;;2.83;1.30;;;;;;;20.47;33.60;95276.50;6126697;23;20338;-87
2023/11/08 09:12:43;;;;;;;5.75;1.40;;;;;;;20.45;33.93;95272.50;6102446;23;20024;-88
2023/11/08 09:15:11;;;;;;;2.83;1.10;;;;;;;20.15;34.58;95278.06;6126905;23;20037;-90
2023/11/08 09:17:40;;;;;;;4.07;1.10;;;;;;;20.16;32.89;95280.44;6096990;23;20046;-89
2023/11/08 09:20:09;;;;;;;5.90;1.08;;;;;;;19.92;33.91;95282.38;6122518;23;20029;-88
2023/11/08 09:22:35;;;;;;;2.40;1.00;;;;;;;20.16;33.35;95283.06;6098216;23;20018;-88
2023/11/08 09:25:03;;;;;;;2.63;0.85;;;;;;;19.14;34.74;95271.22;6121437;23;20006;-87
2023/11/08 09:32:30;;;;;;;1.35;0.90;;;;;;;18.59;35.88;95272.28;6152273;23;20030;-87
2023/11/08 09:34:56;;;;;;;2.55;0.95;;;;;;;18.30;36.70;95285.28;6077277;23;20009;-88
2023/11/08 09:37:21;;;;;;;1.70;0.70;;;;;;;18.23;35.90;95283.75;6126762;23;20005;-88
2023/11/08 09:39:50;;;;;;;1.10;0.80;;;;;;;17.63;36.67;95273.94;6126765;23;20006;-88
2023/11/08 09:42:17;;;;;;;2.70;1.00;;;;;;;17.78;37.80;95287.53;6127111;23;20013;-88
2023/11/08 09:44:46;;;;;;;2.53;0.90;;;;;;;17.70;35.25;95274.69;6102658;23;20033;-88
2023/11/08 09:47:12;;;;;;;1.95;0.90;;;;;;;17.77;37.55;95283.31;6102981;23;20105;-90
2023/11/08 09:49:41;;;;;;;1.20;0.90;;;;;;;17.74;38.84;95295.06;6103101;23;20009;-89
2023/11/08 09:52:11;;;;;;;2.25;0.98;;;;;;;17.37;39.42;95294.25;6127178;23;20009;-89
2023/11/08 09:54:37;;;;;;;1.80;0.90;;;;;;;17.36;41.31;95284.75;6102615;23;20060;-88
2023/11/08 09:57:03;;;;;;;1.55;0.70;;;;;;;17.41;39.21;95281.47;6125754;23;20005;-88
2023/11/08 09:59:31;;;;;;;1.83;0.77;;;;;;;17.02;40.00;95286.91;6101142;23;20006;-89
2023/11/08 10:04:26;;;;;;;1.25;1.00;;;;;;;16.92;39.23;95270.81;6158048;23;20026;-88
2023/11/08 10:06:52;;;;;;;1.52;0.90;;;;;;;17.23;39.89;95284.88;6101274;23;20104;-88
2023/11/08 10:09:31;;;;;;;3.25;0.90;;;;;;;17.50;40.58;95282.81;6100294;23;20033;-88
2023/11/08 10:11:58;;;;;;;1.65;0.90;;;;;;;17.08;39.21;95275.53;6126986;23;20085;-89
2023/11/08 10:14:32;;;;;;;1.60;0.93;;;;;;;16.67;39.25;95284.72;6125922;23;20008;-88
2023/11/08 10:16:58;;;;;;;0.75;0.73;;;;;;;16.57;41.98;95271.28;6102102;23;20009;-88
2023/11/08 10:19:41;;;;;;;2.25;0.80;;;;;;;16.45;38.68;95271.16;6126590;23;20032;-89
2023/11/08 10:22:18;;;;;;;1.23;0.70;;;;;;;16.55;38.68;95268.06;6126439;23;20005;-88
2023/11/08 10:24:57;;;;;;;1.58;0.60;;;;;;;16.59;38.77;95264.78;6126193;23;20016;-88
2023/11/08 10:27:24;;;;;;;4.40;0.88;;;;;;;16.83;39.46;95259.78;6126627;23;20041;-89
2023/11/08 10:29:50;;;;;;;1.30;0.70;;;;;;;16.72;36.69;95244.72;6126233;23;19998;-88
2023/11/08 10:32:20;;;;;;;0.73;0.60;;;;;;;16.40;36.44;95253.41;6126825;23;20009;-88
2023/11/08 10:34:50;;;;;;;2.10;0.80;;;;;;;16.06;38.17;95238.91;6126585;23;20005;-88
2023/11/08 10:37:26;;;;;;;3.27;0.80;;;;;;;16.18;38.47;95242.47;6102621;23;20014;-88
2023/11/08 10:39:58;;;;;;;2.03;0.88;;;;;;;16.07;37.47;95240.53;6102341;23;20016;-88
2023/11/08 10:42:26;;;;;;;4.95;0.80;;;;;;;16.00;39.44;95234.50;6104710;23;20040;-88
2023/11/08 10:45:21;;;;;;;2.85;0.80;;;;;;;15.78;38.55;95236.63;6123333;23;20109;-89
2023/11/08 10:47:47;;;;;;;1.65;0.90;;;;;;;15.95;38.37;95226.44;6129383;23;20041;-87
2023/11/08 10:50:15;;;;;;;1.52;0.98;;;;;;;15.52;42.21;95233.09;6124880;23;20084;-89
2023/11/08 10:52:42;;;;;;;1.50;0.90;;;;;;;15.72;40.58;95224.31;6122935;23;20025;-89
2023/11/08 11:05:23;;;;;;;1.27;0.70;;;;;;;16.36;36.86;95204.19;6142853;23;20037;-89
2023/11/08 11:07:49;;;;;;;2.15;0.70;;;;;;;16.49;37.66;95203.28;6120280;23;20012;-87
2023/11/08 11:10:15;;;;;;;6.15;1.10;;;;;;;16.71;38.00;95207.13;6126141;23;20032;-88
2023/11/08 11:12:40;;;;;;;0.80;0.68;;;;;;;16.33;38.29;95215.91;6127315;23;20010;-88
2023/11/08 11:15:13;;;;;;;0.80;0.77;;;;;;;16.52;39.67;95203.63;6126769;23;20009;-88
2023/11/08 11:20:14;;;;;;;1.63;0.77;;;;;;;16.44;39.72;95188.16;6151523;23;20029;-89
2023/11/08 11:22:41;;;;;;;1.00;0.80;;;;;;;16.73;39.32;95196.41;6129049;23;20064;-88
2023/11/08 11:25:07;;;;;;;0.95;0.82;;;;;;;16.23;39.36;95192.75;6128368;23;20028;-89
2023/11/08 11:27:33;;;;;;;1.10;0.70;;;;;;;16.26;38.72;95183.69;6105064;23;20016;-89
2023/11/08 11:30:13;;;;;;;1.30;0.68;;;;;;;16.02;35.72;95178.19;6128091;23;20006;-89
2023/11/08 11:32:45;;;;;;;;;;;;;;;16.05;38.23;95186.63;6129757;23;20002;-87
2023/11/08 11:45:17;;;;;;;0.80;0.70;;;;;;;16.25;38.54;95166.31;6163252;23;20025;-89
2023/11/08 11:47:49;;;;;;;2.10;0.80;;;;;;;16.11;39.09;95170.06;6128431;23;20010;-88
2023/11/08 11:50:18;;;;;;;1.90;0.98;;;;;;;16.38;39.25;95171.44;6104859;23;20036;-88
2023/11/08 11:55:09;;;;;;;1.27;0.70;;;;;;;15.85;39.66;95153.47;6154941;23;20029;-87
2023/11/08 11:57:36;;;;;;;2.70;0.90;;;;;;;16.33;38.39;95152.13;6104079;23;20014;-88
2023/11/08 12:00:05;;;;;;;2.67;0.90;;;;;;;16.36;38.05;95165.63;6103594;23;20048;-87
2023/11/08 12:02:31;;;;;;;1.17;0.80;;;;;;;16.29;36.94;95164.84;6127975;23;20009;-87
2023/11/08 12:05:00;;;;;;;1.40;0.70;;;;;;;16.23;36.68;95152.59;6103664;23;20096;-88
2023/11/08 12:07:27;;;;;;;2.03;0.53;;;;;;;16.01;38.19;95152.97;6104331;23;20020;-88
2023/11/08 12:09:55;;;;;;;1.73;0.50;;;;;;;16.15;37.39;95150.25;6103859;23;20009;-89
2023/11/08 12:12:33;;;;;;;1.73;0.80;;;;;;;16.38;35.53;95139.94;6127445;23;20016;-87
2023/11/08 12:17:24;;;;;;;0.63;0.50;;;;;;;16.57;36.90;95142.63;6152237;23;20021;-88
2023/11/08 12:19:50;;;;;;;0.80;0.50;;;;;;;16.39;35.27;95122.38;6127098;23;20251;-89
2023/11/08 12:22:16;;;;;;;1.10;0.40;;;;;;;16.11;34.72;95118.38;6128160;23;20020;-88
2023/11/08 12:24:41;;;;;;;1.92;0.50;;;;;;;16.35;34.51;95129.88;6104326;23;20005;-88
2023/11/08 12:27:09;;;;;;;0.50;0.40;;;;;;;16.05;35.78;95118.44;6104943;23;20009;-90
2023/11/08 12:29:35;;;;;;;0.73;0.57;;;;;;;16.03;35.62;95114.22;6129021;23;20085;-89
2023/11/08 12:32:05;;;;;;;0.70;0.68;;;;;;;16.13;36.75;95110.31;6105074;23;20009;-88
2023/11/08 12:39:34;;;;;;;2.20;0.70;;;;;;;15.62;36.46;95099.72;6171465;23;20076;-88
2023/11/08 12:41:59;;;;;;;1.10;0.85;;;;;;;15.62;38.11;95096.31;6128479;23;20100;-88
2023/11/08 12:44:25;;;;;;;1.70;0.90;;;;;;;15.26;38.38;95095.09;6104083;23;20029;-88
2023/11/08 12:46:53;;;;;;;0.82;0.70;;;;;;;15.59;37.73;95094.94;6103974;23;20064;-88
2023/11/08 12:54:30;;;;;;;0.85;0.70;;;;;;;15.27;37.82;95075.75;6128515;23;20050;-88
2023/11/08 12:56:56;;;;;;;0.80;0.80;;;;;;;15.43;37.79;95059.53;6126404;23;20013;-89
2023/11/08 12:59:25;;;;;;;0.70;0.70;;;;;;;15.64;38.29;95068.06;6104764;23;20017;-88
2023/11/08 13:02:00;;;;;;;0.60;0.60;;;;;;;15.89;38.24;95062.06;6108943;23;20024;-89
2023/11/08 13:04:27;;;;;;;1.70;0.70;;;;;;;15.68;37.27;95052.72;6129186;23;20033;-88
2023/11/08 13:06:52;;;;;;;2.30;0.90;;;;;;;15.92;37.45;95044.06;6128243;23;20006;-90
2023/11/08 13:09:18;;;;;;;0.90;0.70;;;;;;;15.96;37.20;95047.88;6128143;23;20010;-88
2023/11/08 13:11:44;;;;;;;3.30;0.50;;;;;;;15.88;37.56;95040.28;6080221;23;20069;-89
2023/11/08 13:14:10;;;;;;;1.17;0.85;;;;;;;15.87;37.17;95049.16;6080392;23;20032;-89
2023/11/08 13:16:36;;;;;;;4.95;0.70;;;;;;;15.75;37.28;95035.16;6127960;23;20001;-89
2023/11/08 13:19:03;;;;;;;1.02;0.80;;;;;;;15.78;37.54;95035.53;6127788;23;20012;-88
2023/11/08 13:21:29;;;;;;;0.93;0.80;;;;;;;15.66;37.91;95039.81;6127642;23;20014;-90
2023/11/08 13:23:55;;;;;;;1.42;0.50;;;;;;;15.88;37.92;95040.28;6127821;23;20060;-89
2023/11/08 13:26:20;;;;;;;1.13;0.70;;;;;;;15.84;37.78;95018.13;6127542;23;20014;-90
2023/11/08 13:28:50;;;;;;;1.02;0.50;;;;;;;15.86;37.37;95018.72;6103655;23;20039;-89
2023/11/08 13:31:17;;;;;;;0.77;0.50;;;;;;;16.04;37.20;95012.69;6080777;23;20010;-88
2023/11/08 13:36:09;;;;;;;3.05;0.70;;;;;;;15.88;37.18;95008.00;6152478;23;20032;-90
2023/11/08 13:38:37;;;;;;;1.75;1.08;;;;;;;15.96;35.78;95019.03;6126999;23;20013;-89
2023/11/08 13:41:09;;;;;;;2.15;0.70;;;;;;;15.35;37.33;95003.97;6128935;23;20013;-87
2023/11/08 13:43:35;;;;;;;1.00;0.63;;;;;;;15.27;38.03;95014.69;6130036;23;20014;-89
2023/11/08 13:56:12;;;;;;;2.15;0.70;;;;;;;15.48;36.23;95003.88;6145886;23;20113;-88
2023/11/08 14:08:49;;;;;;;1.75;0.57;;;;;;;15.38;32.98;94977.31;6153054;23;20021;-88
2023/11/08 14:11:17;;;;;;;1.45;0.70;;;;;;;15.60;35.94;94985.63;6127508;23;20006;-88
2023/11/08 14:13:42;;;;;;;1.20;0.70;;;;;;;15.82;36.18;94983.44;6079038;23;20017;-88
2023/11/08 14:16:08;;;;;;;2.67;0.75;;;;;;;15.93;37.39;94987.97;6103163;23;20020;-88
2023/11/08 14:28:44;;;;;;;3.88;0.70;;;;;;;15.29;38.12;94960.25;6140378;23;20025;-88
2023/11/08 14:31:12;;;;;;;1.25;0.90;;;;;;;15.24;38.53;94968.75;6127791;23;20091;-89
2023/11/08 14:33:38;;;;;;;1.75;0.80;;;;;;;15.18;38.08;94967.78;6126961;23;20080;-90
2023/11/08 14:36:04;;;;;;;1.80;0.90;;;;;;;15.04;37.50;94966.25;6100874;23;20040;-88
2023/11/08 14:38:31;;;;;;;1.80;0.90;;;;;;;14.92;37.40;94955.66;6126236;23;20013;-88
2023/11/08 14:49:07;;;;;;;4.20;1.08;;;;;;;14.72;38.53;94949.75;6140444;23;20102;-88
2023/11/08 14:51:33;;;;;;;2.75;0.98;;;;;;;14.72;38.94;94961.00;6099988;23;20030;-89